This is the latest recevied weather packets stored in our database for station/object KE9ADS. If no packets are shown the sender has not sent any weather packets the latest 10 day(s).
| Time | Temp. | Humidity | Pressure | Rain* | Wind** | Luminosity | Snow |
|---|---|---|---|---|---|---|---|
| 1777500499 | 14.44° C | 35% | 1018.7 hPa | 0 mm | - | 136 W/m² | - |
| 1777499898 | 15° C | 34% | 1018.9 hPa | 0 mm | - | 51 W/m² | - |
| 1777499298 | 15° C | 35% | 1018.7 hPa | 0 mm | - | 449 W/m² | - |
| 1777498697 | 15° C | 34% | 1018.8 hPa | 0 mm | - | 96 W/m² | - |
| 1777498097 | 13.89° C | 35% | 1018.8 hPa | 0 mm | - | 468 W/m² | - |
| 1777497496 | 15° C | 35% | 1018.7 hPa | 0 mm | - | 499 W/m² | - |
| 1777496895 | 15° C | 34% | 1018.7 hPa | 0 mm | - | 216 W/m² | - |
| 1777496294 | 15° C | 36% | 1018.6 hPa | 0 mm | - | 553 W/m² | - |
| 1777495692 | 15° C | 35% | 1018.9 hPa | 0 mm | - | 570 W/m² | - |
| 1777495091 | 15° C | 34% | 1019.2 hPa | 0 mm | - | 600 W/m² | - |
| 1777494485 | 15° C | 36% | 1019 hPa | 0 mm | - | 639 W/m² | - |
| 1777493884 | 15° C | 35% | 1019.1 hPa | 0 mm | - | 651 W/m² | - |
| 1777493280 | 15° C | 35% | 1019.2 hPa | 0 mm | - | 734 W/m² | - |
| 1777492679 | 14.44° C | 35% | 1019.4 hPa | 0 mm | - | 690 W/m² | - |
| 1777492076 | 14.44° C | 37% | 1019.6 hPa | 0 mm | - | 712 W/m² | - |
| 1777491476 | 15° C | 36% | 1019.6 hPa | 0 mm | - | 829 W/m² | - |
| 1777490874 | 15° C | 34% | 1019.4 hPa | 0 mm | - | 758 W/m² | - |
| 1777490272 | 14.44° C | 36% | 1019.4 hPa | 0 mm | - | 841 W/m² | - |
| 1777489668 | 15° C | 34% | 1019.4 hPa | 0 mm | - | 782 W/m² | - |
| 1777489067 | 14.44° C | 34% | 1019.5 hPa | 0 mm | - | 779 W/m² | - |
| 1777488461 | 15° C | 34% | 1019.4 hPa | 0 mm | - | 786 W/m² | - |
| 1777487857 | 15° C | 34% | 1019.4 hPa | 0 mm | - | 796 W/m² | - |
| 1777487257 | 13.89° C | 38% | 1019.5 hPa | 0 mm | - | 807 W/m² | - |
| 1777486656 | 14.44° C | 37% | 1019.6 hPa | 0 mm | - | 810 W/m² | - |
| 1777486052 | 14.44° C | 40% | 1019.2 hPa | 0 mm | - | 843 W/m² | - |
* Rain latest hour (hover to see other rain measurements)
** Current wind speed in m/s (hover to see current wind gust speed)